sensor_id;sensor_type;location;lat;lon;timestamp;P1;durP1;ratioP1;P2;durP2;ratioP2
10511;SDS011;5304;48.604;2.096;2022-08-21T00:02:14;4.67;;;2.60;;
10511;SDS011;5304;48.604;2.096;2022-08-21T00:04:59;5.43;;;2.53;;
10511;SDS011;5304;48.604;2.096;2022-08-21T00:07:44;6.57;;;2.70;;
10511;SDS011;5304;48.604;2.096;2022-08-21T00:10:28;6.37;;;2.60;;
10511;SDS011;5304;48.604;2.096;2022-08-21T00:13:13;6.07;;;3.10;;
10511;SDS011;5304;48.604;2.096;2022-08-21T00:16:00;5.50;;;2.73;;
10511;SDS011;5304;48.604;2.096;2022-08-21T00:18:45;6.77;;;3.47;;
10511;SDS011;5304;48.604;2.096;2022-08-21T00:21:30;4.37;;;2.83;;
10511;SDS011;5304;48.604;2.096;2022-08-21T00:24:15;6.80;;;3.00;;
10511;SDS011;5304;48.604;2.096;2022-08-21T00:26:59;5.93;;;2.60;;
10511;SDS011;5304;48.604;2.096;2022-08-21T00:29:43;4.27;;;3.07;;
10511;SDS011;5304;48.604;2.096;2022-08-21T00:32:28;5.50;;;2.80;;
10511;SDS011;5304;48.604;2.096;2022-08-21T00:35:15;5.87;;;2.70;;
10511;SDS011;5304;48.604;2.096;2022-08-21T00:38:03;6.87;;;3.23;;
10511;SDS011;5304;48.604;2.096;2022-08-21T00:40:50;7.80;;;3.13;;
10511;SDS011;5304;48.604;2.096;2022-08-21T00:43:39;6.50;;;2.77;;
10511;SDS011;5304;48.604;2.096;2022-08-21T00:46:24;8.13;;;2.87;;
10511;SDS011;5304;48.604;2.096;2022-08-21T00:49:09;6.07;;;2.97;;
10511;SDS011;5304;48.604;2.096;2022-08-21T00:51:56;7.10;;;3.17;;
10511;SDS011;5304;48.604;2.096;2022-08-21T00:54:43;4.70;;;2.70;;
10511;SDS011;5304;48.604;2.096;2022-08-21T00:57:30;3.77;;;2.80;;
10511;SDS011;5304;48.604;2.096;2022-08-21T01:00:22;11.23;;;3.20;;
10511;SDS011;5304;48.604;2.096;2022-08-21T01:03:13;7.47;;;3.10;;
10511;SDS011;5304;48.604;2.096;2022-08-21T01:05:59;7.63;;;2.97;;
10511;SDS011;5304;48.604;2.096;2022-08-21T01:08:44;5.43;;;2.87;;
10511;SDS011;5304;48.604;2.096;2022-08-21T01:11:30;6.63;;;2.80;;
10511;SDS011;5304;48.604;2.096;2022-08-21T01:14:14;8.53;;;3.20;;
10511;SDS011;5304;48.604;2.096;2022-08-21T01:16:59;6.40;;;3.13;;
10511;SDS011;5304;48.604;2.096;2022-08-21T01:19:46;7.30;;;3.30;;
10511;SDS011;5304;48.604;2.096;2022-08-21T01:22:31;7.17;;;3.17;;
10511;SDS011;5304;48.604;2.096;2022-08-21T01:25:16;5.13;;;2.93;;
10511;SDS011;5304;48.604;2.096;2022-08-21T01:28:12;5.53;;;3.47;;
10511;SDS011;5304;48.604;2.096;2022-08-21T01:30:58;4.80;;;3.10;;
10511;SDS011;5304;48.604;2.096;2022-08-21T01:33:46;11.27;;;3.67;;
10511;SDS011;5304;48.604;2.096;2022-08-21T01:36:31;10.87;;;3.43;;
10511;SDS011;5304;48.604;2.096;2022-08-21T01:39:16;5.60;;;3.20;;
10511;SDS011;5304;48.604;2.096;2022-08-21T01:42:01;7.43;;;3.20;;
10511;SDS011;5304;48.604;2.096;2022-08-21T01:44:46;7.90;;;2.97;;
10511;SDS011;5304;48.604;2.096;2022-08-21T01:47:31;7.40;;;3.27;;
10511;SDS011;5304;48.604;2.096;2022-08-21T01:50:17;8.80;;;2.70;;
10511;SDS011;5304;48.604;2.096;2022-08-21T01:53:02;5.77;;;3.10;;
10511;SDS011;5304;48.604;2.096;2022-08-21T01:55:47;7.23;;;3.00;;
10511;SDS011;5304;48.604;2.096;2022-08-21T01:58:31;7.73;;;3.40;;
10511;SDS011;5304;48.604;2.096;2022-08-21T02:01:17;7.53;;;3.83;;
10511;SDS011;5304;48.604;2.096;2022-08-21T02:04:01;4.37;;;3.20;;
10511;SDS011;5304;48.604;2.096;2022-08-21T02:06:46;4.13;;;3.30;;
10511;SDS011;5304;48.604;2.096;2022-08-21T02:09:31;5.87;;;3.37;;
10511;SDS011;5304;48.604;2.096;2022-08-21T02:12:16;5.27;;;3.17;;
10511;SDS011;5304;48.604;2.096;2022-08-21T02:15:01;4.83;;;3.10;;
10511;SDS011;5304;48.604;2.096;2022-08-21T02:17:51;3.53;;;3.00;;
10511;SDS011;5304;48.604;2.096;2022-08-21T02:20:39;6.83;;;3.53;;
10511;SDS011;5304;48.604;2.096;2022-08-21T02:23:25;5.70;;;3.00;;
10511;SDS011;5304;48.604;2.096;2022-08-21T02:26:10;5.50;;;3.30;;
10511;SDS011;5304;48.604;2.096;2022-08-21T02:28:55;3.67;;;2.83;;
10511;SDS011;5304;48.604;2.096;2022-08-21T02:31:40;7.30;;;3.43;;
10511;SDS011;5304;48.604;2.096;2022-08-21T02:34:24;6.20;;;3.30;;
10511;SDS011;5304;48.604;2.096;2022-08-21T02:37:08;3.30;;;2.60;;
10511;SDS011;5304;48.604;2.096;2022-08-21T02:39:55;3.47;;;2.67;;
10511;SDS011;5304;48.604;2.096;2022-08-21T02:42:39;6.37;;;3.30;;
10511;SDS011;5304;48.604;2.096;2022-08-21T02:45:23;4.73;;;2.90;;
10511;SDS011;5304;48.604;2.096;2022-08-21T02:48:08;4.77;;;3.13;;
10511;SDS011;5304;48.604;2.096;2022-08-21T02:50:56;8.37;;;3.97;;
10511;SDS011;5304;48.604;2.096;2022-08-21T02:53:46;5.80;;;3.27;;
10511;SDS011;5304;48.604;2.096;2022-08-21T02:56:31;5.83;;;3.30;;
10511;SDS011;5304;48.604;2.096;2022-08-21T02:59:16;5.03;;;2.97;;
10511;SDS011;5304;48.604;2.096;2022-08-21T03:02:00;6.90;;;3.30;;
10511;SDS011;5304;48.604;2.096;2022-08-21T03:04:45;7.87;;;3.67;;
10511;SDS011;5304;48.604;2.096;2022-08-21T03:07:30;4.37;;;3.10;;
10511;SDS011;5304;48.604;2.096;2022-08-21T03:10:14;5.77;;;3.20;;
10511;SDS011;5304;48.604;2.096;2022-08-21T03:12:59;6.00;;;3.50;;
10511;SDS011;5304;48.604;2.096;2022-08-21T03:15:44;8.33;;;3.50;;
10511;SDS011;5304;48.604;2.096;2022-08-21T03:18:29;6.87;;;3.90;;
10511;SDS011;5304;48.604;2.096;2022-08-21T03:21:13;5.57;;;3.50;;
10511;SDS011;5304;48.604;2.096;2022-08-21T03:23:58;6.77;;;3.47;;
10511;SDS011;5304;48.604;2.096;2022-08-21T03:26:42;4.73;;;3.73;;
10511;SDS011;5304;48.604;2.096;2022-08-21T03:29:27;8.30;;;4.50;;
10511;SDS011;5304;48.604;2.096;2022-08-21T03:32:11;7.43;;;4.23;;
10511;SDS011;5304;48.604;2.096;2022-08-21T03:34:56;6.60;;;3.90;;
10511;SDS011;5304;48.604;2.096;2022-08-21T03:37:41;5.57;;;3.83;;
10511;SDS011;5304;48.604;2.096;2022-08-21T03:40:25;7.83;;;3.93;;
10511;SDS011;5304;48.604;2.096;2022-08-21T03:43:10;7.37;;;3.97;;
10511;SDS011;5304;48.604;2.096;2022-08-21T03:45:55;7.17;;;3.60;;
10511;SDS011;5304;48.604;2.096;2022-08-21T03:48:39;7.80;;;3.87;;
10511;SDS011;5304;48.604;2.096;2022-08-21T03:51:24;7.33;;;3.93;;
10511;SDS011;5304;48.604;2.096;2022-08-21T03:54:08;10.23;;;3.57;;
10511;SDS011;5304;48.604;2.096;2022-08-21T03:56:52;6.97;;;4.07;;
10511;SDS011;5304;48.604;2.096;2022-08-21T03:59:37;4.63;;;3.90;;
10511;SDS011;5304;48.604;2.096;2022-08-21T04:02:22;4.87;;;4.10;;
10511;SDS011;5304;48.604;2.096;2022-08-21T04:05:07;5.63;;;4.00;;
10511;SDS011;5304;48.604;2.096;2022-08-21T04:07:58;7.97;;;4.20;;
10511;SDS011;5304;48.604;2.096;2022-08-21T04:10:46;6.40;;;3.80;;
10511;SDS011;5304;48.604;2.096;2022-08-21T04:13:33;5.87;;;4.03;;
10511;SDS011;5304;48.604;2.096;2022-08-21T04:16:17;7.10;;;3.97;;
10511;SDS011;5304;48.604;2.096;2022-08-21T04:19:03;6.77;;;3.50;;
10511;SDS011;5304;48.604;2.096;2022-08-21T04:21:47;8.87;;;4.23;;
10511;SDS011;5304;48.604;2.096;2022-08-21T04:24:33;4.57;;;3.80;;
10511;SDS011;5304;48.604;2.096;2022-08-21T04:27:18;9.00;;;4.40;;
10511;SDS011;5304;48.604;2.096;2022-08-21T04:30:03;4.23;;;3.80;;
10511;SDS011;5304;48.604;2.096;2022-08-21T04:32:49;6.27;;;4.07;;
10511;SDS011;5304;48.604;2.096;2022-08-21T04:35:35;5.40;;;3.77;;
10511;SDS011;5304;48.604;2.096;2022-08-21T04:38:19;9.17;;;4.17;;
10511;SDS011;5304;48.604;2.096;2022-08-21T04:41:04;5.53;;;3.93;;
10511;SDS011;5304;48.604;2.096;2022-08-21T04:43:49;8.73;;;4.07;;
10511;SDS011;5304;48.604;2.096;2022-08-21T04:46:34;6.30;;;4.07;;
10511;SDS011;5304;48.604;2.096;2022-08-21T04:49:19;6.53;;;4.57;;
10511;SDS011;5304;48.604;2.096;2022-08-21T04:52:03;6.30;;;3.93;;
10511;SDS011;5304;48.604;2.096;2022-08-21T04:54:48;11.13;;;4.10;;
10511;SDS011;5304;48.604;2.096;2022-08-21T04:57:35;6.10;;;4.00;;
10511;SDS011;5304;48.604;2.096;2022-08-21T05:00:22;6.73;;;4.13;;
10511;SDS011;5304;48.604;2.096;2022-08-21T05:03:08;6.07;;;4.50;;
10511;SDS011;5304;48.604;2.096;2022-08-21T05:05:55;6.10;;;3.90;;
10511;SDS011;5304;48.604;2.096;2022-08-21T05:08:39;5.23;;;4.10;;
10511;SDS011;5304;48.604;2.096;2022-08-21T05:11:27;4.53;;;3.73;;
10511;SDS011;5304;48.604;2.096;2022-08-21T05:14:14;6.50;;;3.83;;
10511;SDS011;5304;48.604;2.096;2022-08-21T05:16:59;7.17;;;4.50;;
10511;SDS011;5304;48.604;2.096;2022-08-21T05:19:44;9.47;;;4.40;;
10511;SDS011;5304;48.604;2.096;2022-08-21T05:22:28;7.90;;;4.50;;
10511;SDS011;5304;48.604;2.096;2022-08-21T05:25:12;9.60;;;4.60;;
10511;SDS011;5304;48.604;2.096;2022-08-21T05:27:57;5.97;;;4.50;;
10511;SDS011;5304;48.604;2.096;2022-08-21T05:30:41;6.60;;;4.40;;
10511;SDS011;5304;48.604;2.096;2022-08-21T05:33:26;5.40;;;4.27;;
10511;SDS011;5304;48.604;2.096;2022-08-21T05:36:10;5.93;;;4.43;;
10511;SDS011;5304;48.604;2.096;2022-08-21T05:38:55;5.83;;;4.17;;
10511;SDS011;5304;48.604;2.096;2022-08-21T05:41:40;8.83;;;4.30;;
10511;SDS011;5304;48.604;2.096;2022-08-21T05:44:24;9.47;;;4.30;;
10511;SDS011;5304;48.604;2.096;2022-08-21T05:47:10;6.73;;;4.67;;
10511;SDS011;5304;48.604;2.096;2022-08-21T05:49:55;6.73;;;4.70;;
10511;SDS011;5304;48.604;2.096;2022-08-21T05:52:40;6.13;;;4.00;;
10511;SDS011;5304;48.604;2.096;2022-08-21T05:55:24;8.10;;;4.63;;
10511;SDS011;5304;48.604;2.096;2022-08-21T05:58:09;9.43;;;4.60;;
10511;SDS011;5304;48.604;2.096;2022-08-21T06:00:54;10.00;;;4.90;;
10511;SDS011;5304;48.604;2.096;2022-08-21T06:03:39;10.33;;;4.50;;
10511;SDS011;5304;48.604;2.096;2022-08-21T06:06:24;12.47;;;5.33;;
10511;SDS011;5304;48.604;2.096;2022-08-21T06:09:09;7.43;;;4.87;;
10511;SDS011;5304;48.604;2.096;2022-08-21T06:11:53;9.23;;;4.83;;
10511;SDS011;5304;48.604;2.096;2022-08-21T06:14:38;7.77;;;5.00;;
10511;SDS011;5304;48.604;2.096;2022-08-21T06:17:24;13.83;;;5.23;;
10511;SDS011;5304;48.604;2.096;2022-08-21T06:20:09;9.37;;;4.77;;
10511;SDS011;5304;48.604;2.096;2022-08-21T06:22:53;6.17;;;4.80;;
10511;SDS011;5304;48.604;2.096;2022-08-21T06:25:38;8.93;;;4.27;;
10511;SDS011;5304;48.604;2.096;2022-08-21T06:28:22;6.77;;;4.40;;
10511;SDS011;5304;48.604;2.096;2022-08-21T06:31:12;7.77;;;4.00;;
10511;SDS011;5304;48.604;2.096;2022-08-21T06:33:58;4.70;;;4.20;;
10511;SDS011;5304;48.604;2.096;2022-08-21T06:36:43;10.70;;;4.57;;
10511;SDS011;5304;48.604;2.096;2022-08-21T06:39:28;7.90;;;4.70;;
10511;SDS011;5304;48.604;2.096;2022-08-21T06:42:15;7.40;;;4.20;;
10511;SDS011;5304;48.604;2.096;2022-08-21T06:45:00;7.30;;;4.33;;
10511;SDS011;5304;48.604;2.096;2022-08-21T06:47:45;6.33;;;4.67;;
10511;SDS011;5304;48.604;2.096;2022-08-21T06:50:30;5.03;;;4.20;;
10511;SDS011;5304;48.604;2.096;2022-08-21T06:53:16;7.47;;;3.90;;
10511;SDS011;5304;48.604;2.096;2022-08-21T06:56:03;8.23;;;4.30;;
10511;SDS011;5304;48.604;2.096;2022-08-21T06:58:50;6.50;;;4.03;;
10511;SDS011;5304;48.604;2.096;2022-08-21T07:01:35;7.07;;;3.87;;
10511;SDS011;5304;48.604;2.096;2022-08-21T07:04:20;8.50;;;4.03;;
10511;SDS011;5304;48.604;2.096;2022-08-21T07:07:05;8.40;;;4.30;;
10511;SDS011;5304;48.604;2.096;2022-08-21T07:09:49;6.53;;;4.00;;
10511;SDS011;5304;48.604;2.096;2022-08-21T07:12:34;6.37;;;3.80;;
10511;SDS011;5304;48.604;2.096;2022-08-21T07:15:19;8.70;;;4.07;;
10511;SDS011;5304;48.604;2.096;2022-08-21T07:18:04;5.27;;;3.60;;
10511;SDS011;5304;48.604;2.096;2022-08-21T07:20:49;6.77;;;3.73;;
10511;SDS011;5304;48.604;2.096;2022-08-21T07:23:42;5.60;;;3.60;;
10511;SDS011;5304;48.604;2.096;2022-08-21T07:26:28;7.93;;;3.33;;
10511;SDS011;5304;48.604;2.096;2022-08-21T07:29:13;12.30;;;3.80;;
10511;SDS011;5304;48.604;2.096;2022-08-21T07:31:58;12.00;;;3.30;;
10511;SDS011;5304;48.604;2.096;2022-08-21T07:34:42;6.15;;;3.20;;
10511;SDS011;5304;48.604;2.096;2022-08-21T07:37:27;7.75;;;3.33;;
10511;SDS011;5304;48.604;2.096;2022-08-21T07:40:12;8.63;;;3.60;;
10511;SDS011;5304;48.604;2.096;2022-08-21T07:42:57;9.13;;;3.08;;
10511;SDS011;5304;48.604;2.096;2022-08-21T07:45:41;6.30;;;3.30;;
10511;SDS011;5304;48.604;2.096;2022-08-21T07:48:25;6.65;;;3.03;;
10511;SDS011;5304;48.604;2.096;2022-08-21T07:51:11;6.43;;;3.22;;
10511;SDS011;5304;48.604;2.096;2022-08-21T07:53:57;6.60;;;3.60;;
10511;SDS011;5304;48.604;2.096;2022-08-21T07:56:44;6.22;;;3.15;;
10511;SDS011;5304;48.604;2.096;2022-08-21T07:59:29;5.45;;;3.08;;
10511;SDS011;5304;48.604;2.096;2022-08-21T08:02:23;7.95;;;3.20;;
10511;SDS011;5304;48.604;2.096;2022-08-21T08:05:09;9.20;;;3.30;;
10511;SDS011;5304;48.604;2.096;2022-08-21T08:07:55;6.93;;;3.38;;
10511;SDS011;5304;48.604;2.096;2022-08-21T08:10:40;7.25;;;3.40;;
10511;SDS011;5304;48.604;2.096;2022-08-21T08:13:25;7.45;;;3.05;;
10511;SDS011;5304;48.604;2.096;2022-08-21T08:16:09;7.20;;;3.42;;
10511;SDS011;5304;48.604;2.096;2022-08-21T08:18:54;6.82;;;3.35;;
10511;SDS011;5304;48.604;2.096;2022-08-21T08:21:39;6.28;;;3.33;;
10511;SDS011;5304;48.604;2.096;2022-08-21T08:24:23;7.25;;;2.92;;
10511;SDS011;5304;48.604;2.096;2022-08-21T08:27:07;6.18;;;2.90;;
10511;SDS011;5304;48.604;2.096;2022-08-21T08:29:52;6.53;;;3.35;;
10511;SDS011;5304;48.604;2.096;2022-08-21T08:32:36;5.57;;;2.72;;
10511;SDS011;5304;48.604;2.096;2022-08-21T08:35:21;5.32;;;2.92;;
10511;SDS011;5304;48.604;2.096;2022-08-21T08:38:05;9.90;;;3.45;;
10511;SDS011;5304;48.604;2.096;2022-08-21T08:43:53;7.10;;;3.13;;
10511;SDS011;5304;48.604;2.096;2022-08-21T08:46:44;6.00;;;2.83;;
10511;SDS011;5304;48.604;2.096;2022-08-21T08:49:32;7.00;;;2.60;;
10511;SDS011;5304;48.604;2.096;2022-08-21T08:52:27;4.70;;;2.70;;
10511;SDS011;5304;48.604;2.096;2022-08-21T08:55:21;7.35;;;3.00;;
10511;SDS011;5304;48.604;2.096;2022-08-21T08:58:13;7.90;;;2.90;;
10511;SDS011;5304;48.604;2.096;2022-08-21T09:01:08;7.05;;;2.85;;
10511;SDS011;5304;48.604;2.096;2022-08-21T09:04:04;5.68;;;2.60;;
10511;SDS011;5304;48.604;2.096;2022-08-21T09:09:47;5.88;;;2.60;;
10511;SDS011;5304;48.604;2.096;2022-08-21T09:12:38;3.90;;;2.58;;
10511;SDS011;5304;48.604;2.096;2022-08-21T09:15:40;4.35;;;2.85;;
10511;SDS011;5304;48.604;2.096;2022-08-21T09:19:00;5.22;;;2.75;;
10511;SDS011;5304;48.604;2.096;2022-08-21T09:27:40;7.10;;;2.80;;
10511;SDS011;5304;48.604;2.096;2022-08-21T09:30:31;4.85;;;2.70;;
10511;SDS011;5304;48.604;2.096;2022-08-21T09:33:16;3.60;;;2.20;;
10511;SDS011;5304;48.604;2.096;2022-08-21T09:36:01;6.05;;;2.47;;
10511;SDS011;5304;48.604;2.096;2022-08-21T09:38:51;4.97;;;2.25;;
10511;SDS011;5304;48.604;2.096;2022-08-21T09:41:37;5.78;;;2.80;;
10511;SDS011;5304;48.604;2.096;2022-08-21T09:44:29;7.20;;;2.42;;
10511;SDS011;5304;48.604;2.096;2022-08-21T09:47:18;6.13;;;2.40;;
10511;SDS011;5304;48.604;2.096;2022-08-21T09:50:10;6.00;;;2.42;;
10511;SDS011;5304;48.604;2.096;2022-08-21T09:53:14;5.88;;;2.55;;
10511;SDS011;5304;48.604;2.096;2022-08-21T09:56:16;4.60;;;2.35;;
10511;SDS011;5304;48.604;2.096;2022-08-21T09:59:28;6.15;;;2.30;;
10511;SDS011;5304;48.604;2.096;2022-08-21T10:05:09;8.60;;;2.47;;
10511;SDS011;5304;48.604;2.096;2022-08-21T10:08:16;7.13;;;2.35;;
10511;SDS011;5304;48.604;2.096;2022-08-21T10:11:06;6.65;;;2.30;;
10511;SDS011;5304;48.604;2.096;2022-08-21T10:17:04;7.13;;;2.25;;
10511;SDS011;5304;48.604;2.096;2022-08-21T10:26:08;3.20;;;1.98;;
10511;SDS011;5304;48.604;2.096;2022-08-21T10:29:46;5.72;;;2.10;;
10511;SDS011;5304;48.604;2.096;2022-08-21T10:35:56;5.93;;;2.00;;
10511;SDS011;5304;48.604;2.096;2022-08-21T10:38:54;3.45;;;2.08;;
10511;SDS011;5304;48.604;2.096;2022-08-21T10:42:05;2.97;;;2.00;;
10511;SDS011;5304;48.604;2.096;2022-08-21T10:45:11;4.95;;;2.10;;
10511;SDS011;5304;48.604;2.096;2022-08-21T10:48:03;6.32;;;1.88;;
10511;SDS011;5304;48.604;2.096;2022-08-21T10:50:59;3.47;;;1.70;;
10511;SDS011;5304;48.604;2.096;2022-08-21T10:54:05;1.65;;;1.55;;
10511;SDS011;5304;48.604;2.096;2022-08-21T10:57:06;2.65;;;1.80;;
10511;SDS011;5304;48.604;2.096;2022-08-21T10:59:57;2.72;;;1.70;;
10511;SDS011;5304;48.604;2.096;2022-08-21T11:06:41;1.83;;;1.50;;
10511;SDS011;5304;48.604;2.096;2022-08-21T11:09:17;3.05;;;1.80;;
10511;SDS011;5304;48.604;2.096;2022-08-21T11:12:10;2.50;;;1.65;;
10511;SDS011;5304;48.604;2.096;2022-08-21T11:15:23;2.65;;;1.55;;
10511;SDS011;5304;48.604;2.096;2022-08-21T11:18:32;5.90;;;1.80;;
10511;SDS011;5304;48.604;2.096;2022-08-21T11:27:26;3.28;;;1.80;;
10511;SDS011;5304;48.604;2.096;2022-08-21T11:30:38;3.25;;;1.50;;
10511;SDS011;5304;48.604;2.096;2022-08-21T11:42:41;2.50;;;1.60;;
10511;SDS011;5304;48.604;2.096;2022-08-21T11:45:39;2.40;;;1.40;;
10511;SDS011;5304;48.604;2.096;2022-08-21T11:51:40;2.35;;;1.58;;
10511;SDS011;5304;48.604;2.096;2022-08-21T11:57:26;5.15;;;1.52;;
10511;SDS011;5304;48.604;2.096;2022-08-21T12:00:26;4.22;;;1.80;;
10511;SDS011;5304;48.604;2.096;2022-08-21T12:03:17;2.90;;;1.77;;
10511;SDS011;5304;48.604;2.096;2022-08-21T12:06:12;6.75;;;2.90;;
10511;SDS011;5304;48.604;2.096;2022-08-21T12:08:59;4.28;;;1.55;;
10511;SDS011;5304;48.604;2.096;2022-08-21T12:11:47;1.95;;;1.20;;
10511;SDS011;5304;48.604;2.096;2022-08-21T12:17:24;3.72;;;1.60;;
10511;SDS011;5304;48.604;2.096;2022-08-21T12:23:12;2.05;;;1.25;;
10511;SDS011;5304;48.604;2.096;2022-08-21T12:26:03;4.43;;;1.27;;
10511;SDS011;5304;48.604;2.096;2022-08-21T12:29:02;2.40;;;1.15;;
10511;SDS011;5304;48.604;2.096;2022-08-21T12:32:25;2.70;;;1.23;;
10511;SDS011;5304;48.604;2.096;2022-08-21T12:35:10;2.55;;;1.13;;
10511;SDS011;5304;48.604;2.096;2022-08-21T12:41:18;5.40;;;1.10;;
10511;SDS011;5304;48.604;2.096;2022-08-21T12:44:15;4.15;;;1.27;;
10511;SDS011;5304;48.604;2.096;2022-08-21T12:47:11;6.50;;;1.80;;
10511;SDS011;5304;48.604;2.096;2022-08-21T12:52:58;5.32;;;1.48;;
10511;SDS011;5304;48.604;2.096;2022-08-21T12:55:48;4.47;;;1.65;;
10511;SDS011;5304;48.604;2.096;2022-08-21T12:58:33;2.75;;;1.30;;
10511;SDS011;5304;48.604;2.096;2022-08-21T13:01:28;33.35;;;5.45;;
10511;SDS011;5304;48.604;2.096;2022-08-21T13:04:22;18.77;;;3.20;;
10511;SDS011;5304;48.604;2.096;2022-08-21T13:07:28;8.50;;;1.65;;
10511;SDS011;5304;48.604;2.096;2022-08-21T13:10:18;7.07;;;1.65;;
10511;SDS011;5304;48.604;2.096;2022-08-21T13:13:08;2.55;;;1.50;;
10511;SDS011;5304;48.604;2.096;2022-08-21T13:16:05;1.90;;;1.40;;
10511;SDS011;5304;48.604;2.096;2022-08-21T13:18:55;8.20;;;1.60;;
10511;SDS011;5304;48.604;2.096;2022-08-21T13:21:41;1.58;;;0.90;;
10511;SDS011;5304;48.604;2.096;2022-08-21T13:24:28;1.85;;;0.90;;
10511;SDS011;5304;48.604;2.096;2022-08-21T13:27:18;1.67;;;1.10;;
10511;SDS011;5304;48.604;2.096;2022-08-21T13:32:58;2.10;;;1.00;;
10511;SDS011;5304;48.604;2.096;2022-08-21T13:38:44;1.80;;;1.13;;
10511;SDS011;5304;48.604;2.096;2022-08-21T13:41:31;2.50;;;1.38;;
10511;SDS011;5304;48.604;2.096;2022-08-21T13:44:19;2.95;;;1.30;;
10511;SDS011;5304;48.604;2.096;2022-08-21T13:47:10;3.85;;;1.42;;
10511;SDS011;5304;48.604;2.096;2022-08-21T13:49:57;4.35;;;1.50;;
10511;SDS011;5304;48.604;2.096;2022-08-21T13:53:01;3.03;;;1.58;;
10511;SDS011;5304;48.604;2.096;2022-08-21T13:55:47;3.70;;;1.45;;
10511;SDS011;5304;48.604;2.096;2022-08-21T13:58:41;3.20;;;1.42;;
10511;SDS011;5304;48.604;2.096;2022-08-21T14:01:28;2.63;;;1.48;;
10511;SDS011;5304;48.604;2.096;2022-08-21T14:07:45;4.68;;;1.60;;
10511;SDS011;5304;48.604;2.096;2022-08-21T14:10:31;2.63;;;1.30;;
10511;SDS011;5304;48.604;2.096;2022-08-21T14:13:29;2.97;;;1.27;;
10511;SDS011;5304;48.604;2.096;2022-08-21T14:16:54;3.60;;;1.27;;
10511;SDS011;5304;48.604;2.096;2022-08-21T14:19:42;2.70;;;1.45;;
10511;SDS011;5304;48.604;2.096;2022-08-21T14:28:19;3.15;;;1.08;;
10511;SDS011;5304;48.604;2.096;2022-08-21T14:31:13;4.90;;;1.20;;
10511;SDS011;5304;48.604;2.096;2022-08-21T14:34:00;4.55;;;1.45;;
10511;SDS011;5304;48.604;2.096;2022-08-21T14:36:45;4.43;;;1.30;;
10511;SDS011;5304;48.604;2.096;2022-08-21T14:39:31;4.43;;;1.42;;
10511;SDS011;5304;48.604;2.096;2022-08-21T14:42:16;3.53;;;1.17;;
10511;SDS011;5304;48.604;2.096;2022-08-21T14:45:02;1.85;;;1.20;;
10511;SDS011;5304;48.604;2.096;2022-08-21T14:47:51;3.60;;;1.30;;
10511;SDS011;5304;48.604;2.096;2022-08-21T14:50:36;2.95;;;1.30;;
10511;SDS011;5304;48.604;2.096;2022-08-21T14:53:21;3.42;;;1.40;;
10511;SDS011;5304;48.604;2.096;2022-08-21T14:56:05;2.10;;;1.30;;
10511;SDS011;5304;48.604;2.096;2022-08-21T14:58:51;4.85;;;1.30;;
10511;SDS011;5304;48.604;2.096;2022-08-21T15:01:37;3.95;;;1.42;;
10511;SDS011;5304;48.604;2.096;2022-08-21T15:04:23;2.35;;;1.52;;
10511;SDS011;5304;48.604;2.096;2022-08-21T15:07:07;2.80;;;1.40;;
10511;SDS011;5304;48.604;2.096;2022-08-21T15:09:52;3.80;;;1.60;;
10511;SDS011;5304;48.604;2.096;2022-08-21T15:12:36;3.35;;;1.35;;
10511;SDS011;5304;48.604;2.096;2022-08-21T15:15:21;3.38;;;1.63;;
10511;SDS011;5304;48.604;2.096;2022-08-21T15:18:06;6.10;;;1.70;;
10511;SDS011;5304;48.604;2.096;2022-08-21T15:20:53;3.00;;;1.77;;
10511;SDS011;5304;48.604;2.096;2022-08-21T15:23:38;3.78;;;2.20;;
10511;SDS011;5304;48.604;2.096;2022-08-21T15:26:22;5.32;;;2.05;;
10511;SDS011;5304;48.604;2.096;2022-08-21T15:29:08;4.60;;;1.73;;
10511;SDS011;5304;48.604;2.096;2022-08-21T15:31:57;7.82;;;1.88;;
10511;SDS011;5304;48.604;2.096;2022-08-21T15:34:43;4.40;;;1.67;;
10511;SDS011;5304;48.604;2.096;2022-08-21T15:37:27;4.55;;;1.70;;
10511;SDS011;5304;48.604;2.096;2022-08-21T15:40:12;3.70;;;1.73;;
10511;SDS011;5304;48.604;2.096;2022-08-21T15:42:58;3.67;;;1.40;;
10511;SDS011;5304;48.604;2.096;2022-08-21T15:45:44;3.35;;;1.50;;
10511;SDS011;5304;48.604;2.096;2022-08-21T15:48:28;4.13;;;1.80;;
10511;SDS011;5304;48.604;2.096;2022-08-21T15:51:13;3.28;;;1.80;;
10511;SDS011;5304;48.604;2.096;2022-08-21T15:53:59;2.35;;;1.70;;
10511;SDS011;5304;48.604;2.096;2022-08-21T15:56:44;4.00;;;1.60;;
10511;SDS011;5304;48.604;2.096;2022-08-21T15:59:32;3.55;;;1.50;;
10511;SDS011;5304;48.604;2.096;2022-08-21T16:02:29;4.93;;;2.08;;
10511;SDS011;5304;48.604;2.096;2022-08-21T16:05:15;3.13;;;1.40;;
10511;SDS011;5304;48.604;2.096;2022-08-21T16:08:00;4.35;;;2.05;;
10511;SDS011;5304;48.604;2.096;2022-08-21T16:10:45;5.22;;;1.88;;
10511;SDS011;5304;48.604;2.096;2022-08-21T16:13:36;4.28;;;2.08;;
10511;SDS011;5304;48.604;2.096;2022-08-21T16:16:34;4.03;;;1.98;;
10511;SDS011;5304;48.604;2.096;2022-08-21T16:19:20;4.15;;;2.13;;
10511;SDS011;5304;48.604;2.096;2022-08-21T16:22:04;3.53;;;1.95;;
10511;SDS011;5304;48.604;2.096;2022-08-21T16:24:51;4.22;;;1.98;;
10511;SDS011;5304;48.604;2.096;2022-08-21T16:27:35;3.80;;;1.80;;
10511;SDS011;5304;48.604;2.096;2022-08-21T16:30:20;6.30;;;2.53;;
10511;SDS011;5304;48.604;2.096;2022-08-21T16:33:04;4.43;;;1.88;;
10511;SDS011;5304;48.604;2.096;2022-08-21T16:35:50;3.95;;;1.90;;
10511;SDS011;5304;48.604;2.096;2022-08-21T16:38:35;5.53;;;2.13;;
10511;SDS011;5304;48.604;2.096;2022-08-21T16:41:21;3.85;;;1.90;;
10511;SDS011;5304;48.604;2.096;2022-08-21T16:44:07;5.53;;;2.08;;
10511;SDS011;5304;48.604;2.096;2022-08-21T16:46:53;5.03;;;2.10;;
10511;SDS011;5304;48.604;2.096;2022-08-21T16:49:38;3.08;;;1.80;;
10511;SDS011;5304;48.604;2.096;2022-08-21T16:52:22;5.45;;;2.15;;
10511;SDS011;5304;48.604;2.096;2022-08-21T16:55:07;5.25;;;2.63;;
10511;SDS011;5304;48.604;2.096;2022-08-21T16:57:52;4.15;;;2.28;;
10511;SDS011;5304;48.604;2.096;2022-08-21T17:00:37;3.72;;;1.90;;
10511;SDS011;5304;48.604;2.096;2022-08-21T17:03:24;4.30;;;2.15;;
10511;SDS011;5304;48.604;2.096;2022-08-21T17:06:16;4.47;;;1.92;;
10511;SDS011;5304;48.604;2.096;2022-08-21T17:09:01;2.97;;;1.98;;
10511;SDS011;5304;48.604;2.096;2022-08-21T17:11:47;4.00;;;2.55;;
10511;SDS011;5304;48.604;2.096;2022-08-21T17:14:32;4.28;;;1.90;;
10511;SDS011;5304;48.604;2.096;2022-08-21T17:17:19;7.72;;;2.03;;
10511;SDS011;5304;48.604;2.096;2022-08-21T17:20:04;2.95;;;1.73;;
10511;SDS011;5304;48.604;2.096;2022-08-21T17:22:48;5.70;;;2.50;;
10511;SDS011;5304;48.604;2.096;2022-08-21T17:25:33;4.22;;;1.95;;
10511;SDS011;5304;48.604;2.096;2022-08-21T17:28:24;7.30;;;1.88;;
10511;SDS011;5304;48.604;2.096;2022-08-21T17:31:11;4.70;;;1.50;;
10511;SDS011;5304;48.604;2.096;2022-08-21T17:33:57;3.67;;;1.55;;
10511;SDS011;5304;48.604;2.096;2022-08-21T17:36:41;5.85;;;1.83;;
10511;SDS011;5304;48.604;2.096;2022-08-21T17:39:26;3.05;;;1.48;;
10511;SDS011;5304;48.604;2.096;2022-08-21T17:42:11;2.47;;;1.30;;
10511;SDS011;5304;48.604;2.096;2022-08-21T17:44:57;3.50;;;1.33;;
10511;SDS011;5304;48.604;2.096;2022-08-21T17:47:42;1.73;;;1.25;;
10511;SDS011;5304;48.604;2.096;2022-08-21T17:50:26;1.90;;;1.50;;
10511;SDS011;5304;48.604;2.096;2022-08-21T17:53:11;2.15;;;1.50;;
10511;SDS011;5304;48.604;2.096;2022-08-21T17:55:55;3.22;;;1.55;;
10511;SDS011;5304;48.604;2.096;2022-08-21T17:58:41;6.40;;;1.70;;
10511;SDS011;5304;48.604;2.096;2022-08-21T18:01:31;5.38;;;1.88;;
10511;SDS011;5304;48.604;2.096;2022-08-21T18:04:18;1.65;;;1.42;;
10511;SDS011;5304;48.604;2.096;2022-08-21T18:07:03;4.20;;;1.65;;
10511;SDS011;5304;48.604;2.096;2022-08-21T18:09:48;4.40;;;2.63;;
10511;SDS011;5304;48.604;2.096;2022-08-21T18:12:32;6.60;;;4.53;;
10511;SDS011;5304;48.604;2.096;2022-08-21T18:15:18;5.15;;;3.80;;
10511;SDS011;5304;48.604;2.096;2022-08-21T18:18:03;8.68;;;4.45;;
10511;SDS011;5304;48.604;2.096;2022-08-21T18:20:49;7.68;;;3.72;;
10511;SDS011;5304;48.604;2.096;2022-08-21T18:23:34;6.53;;;3.40;;
10511;SDS011;5304;48.604;2.096;2022-08-21T18:26:23;6.15;;;3.85;;